Huvudsida
METAR-TAF:

METAR-TAF

Flygplatser :

Mehrabads flygplats

Teheran, Iran

latitud: 35-41N, longitud: 051-21E, höjd: 1204 m

Aktuellt väderrapport

Denna rapport gjordes för 28 minuter sedan, klockan 21:00 UTC
Vind 4 kt från väst
Temperatur 5°C
Fuktighet 75%
Tryck 1022 hPa
Sikt: 3500 m
Få moln på en höjd av 10000 ft
Brutna moln på en höjd av 20000 ft
torrdis

METAR: OIII 142100Z 27004KT 3500 HZ FEW100 BKN200 05/01 Q1022 A3018

Tid: 00:58 (21:28 UTC)

Väderprognos

Denna rapport gjordes för 3 timmar och 38 minuter sedan, klockan 17:50 UTC
Prognos gäller från 14 kl. 18 UTC till 15 kl. 24 UTC
Vind 6 kt från väst/sydväst
Sikt: 3000 m
Få moln på en höjd av 3500 ft
Spridda moln på en höjd av 10000 ft
torrdis
Temporärt
från 15 kl. 01 UTC till 15 kl. 06 UTC
Sikt: 1500 m

TAF: OIII 141750Z 1418/1524 24006KT 3000 HZ FEW035 SCT100 TEMPO 1501/1506 1500 BR/HZ

Aktuella väderrapporter och prognoser från 4000 flygplatser (METAR- och TAF-rapporter).

De tillgängliga stationerna syns som gula och röda prickar på kartan.

För musen över prickarna för att se namnen på stationerna.

Klicka sedan för att få väderrapporter och prognoser.

För att ändra kartan: Klicka på de gröna knapparna med ett svart kors på för att zooma in; den gröna knappen med ett streck på för att zooma ut; eller på de gröna pilarna för angränsande kartor.


METAR-TAF: